Time;durP1;ratioP1;P1;durP2;ratioP2;P2;SDS_P1;SDS_P2;PMS_P1;PMS_P2;Temp;Humidity;BMP_temperature;BMP_pressure;BME280_temperature;BME280_humidity;BME280_pressure;Samples;Min_cycle;Max_cycle;Signal;HPM_P1;HPM_P2
2023/03/31 00:00:45;;;;;;;0.20;0.20;;;;;;;19.03;46.92;100145.00;5098583;28;20043;-46
2023/03/31 00:03:12;;;;;;;0.20;0.20;;;;;;;19.04;46.99;100141.13;5098005;28;20548;-45
2023/03/31 00:05:38;;;;;;;0.20;0.20;;;;;;;19.02;47.26;100148.91;5116557;28;20043;-46
2023/03/31 00:08:04;;;;;;;0.30;0.30;;;;;;;19.02;47.21;100138.66;5098176;28;20495;-46
2023/03/31 00:10:32;;;;;;;0.20;0.20;;;;;;;19.02;47.05;100135.91;5122238;27;20054;-45
2023/03/31 00:12:59;;;;;;;0.20;0.20;;;;;;;19.03;47.21;100136.72;5118747;27;20066;-45
2023/03/31 00:15:25;;;;;;;0.20;0.20;;;;;;;19.02;47.06;100126.81;5136796;27;20427;-45
2023/03/31 00:17:50;;;;;;;0.20;0.20;;;;;;;19.02;47.18;100124.06;5118306;27;20553;-46
2023/03/31 00:20:16;;;;;;;0.20;0.20;;;;;;;19.03;47.18;100122.94;5137316;27;20047;-45
2023/03/31 00:22:45;;;;;;;0.30;0.30;;;;;;;19.02;47.24;100115.78;5137097;27;20042;-46
2023/03/31 00:25:12;;;;;;;0.20;0.20;;;;;;;19.02;46.99;100113.84;5132884;27;20415;-45
2023/03/31 00:27:43;;;;;;;0.20;0.20;;;;;;;19.01;47.10;100103.94;5097526;28;20483;-45
2023/03/31 00:30:10;;;;;;;0.30;0.30;;;;;;;19.02;47.09;100094.53;5097457;28;20054;-46
2023/03/31 00:32:35;;;;;;;0.20;0.20;;;;;;;19.02;47.08;100091.75;5123811;27;20111;-45
2023/03/31 00:35:01;;;;;;;0.20;0.20;;;;;;;19.02;47.10;100089.00;5136554;27;20043;-45
2023/03/31 00:37:28;;;;;;;0.20;0.20;;;;;;;19.03;47.19;100076.03;5136715;27;20265;-45
2023/03/31 00:39:54;;;;;;;0.20;0.20;;;;;;;19.02;47.26;100072.44;5136616;27;20054;-46
2023/03/31 00:42:20;;;;;;;0.30;0.30;;;;;;;19.02;46.92;100060.59;5133541;27;20483;-46
2023/03/31 00:45:16;;;;;;;0.30;0.30;;;;;;;19.02;47.01;100047.59;5097628;28;20051;-45
2023/03/31 00:47:45;;;;;;;0.20;0.20;;;;;;;19.02;47.12;100042.09;5101839;28;20069;-45
2023/03/31 00:50:17;;;;;;;0.30;0.30;;;;;;;19.02;47.20;100033.00;5115539;28;20452;-45
2023/03/31 00:52:44;;;;;;;0.30;0.30;;;;;;;19.01;47.14;100034.94;5120894;27;20039;-45
2023/03/31 00:55:15;;;;;;;0.40;0.40;;;;;;;19.01;46.95;100025.84;5080587;28;20073;-45
2023/03/31 00:57:43;;;;;;;0.20;0.20;;;;;;;19.02;46.89;100030.22;5115791;28;20352;-46
2023/03/31 01:00:18;;;;;;;0.20;0.20;;;;;;;19.02;47.14;100021.97;5099960;27;20143;-44
2023/03/31 01:02:51;;;;;;;0.20;0.20;;;;;;;19.01;47.19;100017.56;5119482;27;20518;-45
2023/03/31 01:05:20;;;;;;;0.20;0.20;;;;;;;19.01;47.19;100012.03;5136628;27;20072;-47
2023/03/31 01:07:47;;;;;;;0.25;0.25;;;;;;;19.01;47.06;100006.53;5136676;27;20102;-45
2023/03/31 01:10:13;;;;;;;0.20;0.20;;;;;;;19.00;47.29;100000.19;5117923;27;20098;-46
2023/03/31 01:12:40;;;;;;;0.20;0.20;;;;;;;19.01;46.87;99998.25;5118526;27;20315;-46
2023/03/31 01:15:07;;;;;;;0.20;0.20;;;;;;;19.01;46.98;99999.06;5136810;27;20038;-47
2023/03/31 01:17:33;;;;;;;0.20;0.20;;;;;;;19.01;46.79;99992.72;5117892;27;20357;-47
2023/03/31 01:26:01;;;;;;;0.20;0.20;;;;;;;19.01;46.98;99977.00;5174796;27;20127;-46
2023/03/31 01:28:46;;;;;;;0.30;0.30;;;;;;;19.01;47.01;99971.47;5139204;27;20478;-45
2023/03/31 01:31:37;;;;;;;0.20;0.20;;;;;;;19.01;47.09;99973.41;5147860;27;20043;-51
2023/03/31 01:34:20;;;;;;;0.20;0.20;;;;;;;19.00;46.85;99966.25;5097723;28;20073;-45
2023/03/31 01:37:04;;;;;;;0.20;0.20;;;;;;;19.00;47.12;99956.03;5111590;28;20101;-44
2023/03/31 01:40:09;;;;;;;0.20;0.20;;;;;;;19.01;46.88;99959.63;5111619;28;20048;-45
2023/03/31 01:42:39;;;;;;;0.20;0.20;;;;;;;19.01;47.09;99954.09;5093658;27;20039;-46
2023/03/31 01:45:35;;;;;;;0.20;0.20;;;;;;;19.00;46.96;99952.47;5118826;27;20070;-45
2023/03/31 01:48:11;;;;;;;0.30;0.30;;;;;;;19.00;46.97;99956.03;5116559;27;20050;-46
2023/03/31 01:50:45;;;;;;;0.20;0.20;;;;;;;19.00;46.90;99942.25;5113889;27;20069;-46
2023/03/31 01:53:19;;;;;;;0.30;0.30;;;;;;;19.01;46.85;99934.78;5114173;27;20043;-47
2023/03/31 01:56:05;;;;;;;0.30;0.30;;;;;;;19.00;47.04;99938.69;5132450;27;20054;-46
2023/03/31 01:58:53;;;;;;;0.20;0.20;;;;;;;19.01;47.15;99937.53;5113623;27;20442;-46
2023/03/31 02:01:25;;;;;;;0.30;0.30;;;;;;;18.99;46.89;99926.78;5132169;27;20043;-45
2023/03/31 02:03:55;;;;;;;0.20;0.20;;;;;;;19.00;47.07;99922.13;5131872;27;20042;-45
2023/03/31 02:06:26;;;;;;;0.20;0.20;;;;;;;18.99;46.87;99921.28;5113748;27;20284;-46
2023/03/31 02:08:59;;;;;;;0.20;0.20;;;;;;;19.01;47.03;99909.94;5131897;27;20185;-46
2023/03/31 02:11:25;;;;;;;0.20;0.20;;;;;;;19.00;47.13;99900.84;5113030;27;20508;-45
2023/03/31 02:13:52;;;;;;;0.20;0.20;;;;;;;18.99;46.88;99906.66;5113339;27;20058;-46
2023/03/31 02:16:23;;;;;;;0.20;0.20;;;;;;;19.00;47.10;99909.13;5132020;27;20050;-45
2023/03/31 02:18:52;;;;;;;0.20;0.20;;;;;;;18.99;47.20;99892.88;5113437;27;20082;-46
2023/03/31 02:21:18;;;;;;;0.20;0.20;;;;;;;18.99;47.11;99888.16;5119266;27;20098;-45
2023/03/31 02:23:44;;;;;;;0.20;0.20;;;;;;;19.00;47.12;99873.28;5110522;27;20503;-45
2023/03/31 02:26:15;;;;;;;0.20;0.20;;;;;;;18.99;47.11;99863.31;5093170;28;20116;-45
2023/03/31 02:28:41;;;;;;;0.20;0.20;;;;;;;19.00;47.17;99847.63;5113848;27;20058;-45
2023/03/31 02:31:46;;;;;;;0.20;0.20;;;;;;;18.99;46.94;99844.00;5130987;27;20449;-45
2023/03/31 02:34:12;;;;;;;0.20;0.20;;;;;;;18.99;46.99;99830.22;5115025;27;20043;-46
2023/03/31 02:36:39;;;;;;;0.20;0.20;;;;;;;19.00;47.16;99822.78;5120276;27;20073;-45
2023/03/31 02:39:08;;;;;;;0.20;0.20;;;;;;;18.99;46.86;99813.66;5117752;27;20050;-45
2023/03/31 02:41:34;;;;;;;0.30;0.30;;;;;;;18.99;47.07;99793.53;5091096;28;20043;-45
2023/03/31 02:44:00;;;;;;;0.20;0.20;;;;;;;19.00;46.97;99809.00;5078740;28;20079;-45
2023/03/31 02:46:27;;;;;;;0.30;0.30;;;;;;;18.99;47.06;99788.84;5089140;28;20051;-47
2023/03/31 02:48:56;;;;;;;0.22;0.22;;;;;;;18.99;46.79;99777.78;5115271;28;20075;-45
2023/03/31 02:51:27;;;;;;;;;;;;;;;18.99;46.88;99779.75;5117814;27;20168;-45
2023/03/31 02:54:24;;;;;;;0.25;0.25;;;;;;;18.98;47.09;99773.41;5117542;28;19959;-45
2023/03/31 03:00:06;;;;;;;0.20;0.20;;;;;;;18.98;47.03;99745.81;5174499;27;20228;-45
2023/03/31 03:02:51;;;;;;;0.20;0.20;;;;;;;18.98;47.06;99732.03;5126924;27;20047;-46
2023/03/31 03:05:44;;;;;;;0.20;0.20;;;;;;;18.98;47.03;99726.50;5153328;27;20299;-45
2023/03/31 03:08:54;;;;;;;0.20;0.20;;;;;;;18.98;47.00;99722.94;5138904;27;20077;-45
2023/03/31 03:11:52;;;;;;;0.28;0.28;;;;;;;18.98;47.09;99725.69;5127460;27;20042;-45
2023/03/31 03:14:27;;;;;;;0.20;0.20;;;;;;;18.97;47.13;99721.31;5137474;27;20047;-46
2023/03/31 03:16:58;;;;;;;0.25;0.25;;;;;;;18.98;47.22;99714.66;5146817;27;20043;-46
2023/03/31 03:19:25;;;;;;;0.20;0.20;;;;;;;18.98;46.87;99696.16;5131670;27;20498;-45
2023/03/31 03:21:50;;;;;;;0.30;0.30;;;;;;;18.98;47.25;99692.59;5148835;27;20236;-46
2023/03/31 03:24:17;;;;;;;0.30;0.30;;;;;;;18.97;46.91;99697.28;5153269;27;20046;-45
2023/03/31 03:26:44;;;;;;;0.20;0.20;;;;;;;18.98;47.21;99693.41;5116863;27;20196;-45
2023/03/31 03:29:13;;;;;;;0.20;0.20;;;;;;;18.98;47.03;99682.34;5117553;27;20070;-44
2023/03/31 03:31:40;;;;;;;0.30;0.30;;;;;;;18.98;46.84;99670.50;5144157;27;20300;-48
2023/03/31 03:34:06;;;;;;;0.20;0.20;;;;;;;18.97;47.06;99669.69;5121856;27;20497;-47
2023/03/31 03:36:32;;;;;;;0.28;0.28;;;;;;;18.99;46.94;99669.38;5113569;27;20069;-48
2023/03/31 03:38:57;;;;;;;0.20;0.20;;;;;;;18.97;46.82;99680.75;5132316;27;20393;-47
2023/03/31 03:41:23;;;;;;;0.20;0.20;;;;;;;18.98;47.12;99696.16;5119162;27;20077;-49
2023/03/31 03:43:49;;;;;;;0.20;0.20;;;;;;;18.98;46.81;99670.50;5092726;28;20456;-48
2023/03/31 03:46:15;;;;;;;0.20;0.20;;;;;;;18.97;47.09;99649.56;5111226;28;20043;-47
2023/03/31 03:48:40;;;;;;;0.20;0.20;;;;;;;18.98;46.87;99651.19;5122191;27;20145;-47
2023/03/31 03:51:06;;;;;;;0.20;0.20;;;;;;;18.97;47.09;99628.31;5123945;27;20058;-49
2023/03/31 03:53:32;;;;;;;0.20;0.20;;;;;;;18.97;46.78;99617.28;5131566;27;20046;-48
2023/03/31 03:55:58;;;;;;;0.20;0.20;;;;;;;18.96;46.66;99614.84;5131639;27;20054;-48
2023/03/31 03:58:23;;;;;;;0.20;0.20;;;;;;;18.98;46.78;99626.38;5131272;27;20443;-48
2023/03/31 04:00:49;;;;;;;0.20;0.20;;;;;;;18.97;46.79;99614.53;5131729;27;20097;-47
2023/03/31 04:03:15;;;;;;;0.20;0.20;;;;;;;19.03;47.28;99621.53;5131466;27;20510;-47
2023/03/31 04:05:41;;;;;;;0.30;0.30;;;;;;;19.06;47.19;99620.13;5130321;27;20107;-48
2023/03/31 04:08:07;;;;;;;0.20;0.20;;;;;;;19.10;47.50;99620.31;5130740;27;20043;-47
2023/03/31 04:10:34;;;;;;;0.20;0.20;;;;;;;19.05;47.41;99624.00;5100784;28;20275;-48
2023/03/31 04:13:00;;;;;;;0.20;0.20;;;;;;;19.03;47.38;99607.75;5097886;28;20478;-47
2023/03/31 04:15:25;;;;;;;0.20;0.20;;;;;;;19.03;47.44;99601.41;5081570;28;20050;-48
2023/03/31 04:17:53;;;;;;;0.30;0.30;;;;;;;19.02;47.30;99595.09;5102512;28;20044;-48
2023/03/31 04:20:19;;;;;;;0.28;0.28;;;;;;;19.02;47.28;99586.00;5100399;28;20051;-48
2023/03/31 04:22:49;;;;;;;0.30;0.30;;;;;;;19.02;47.29;99580.47;5099145;28;20046;-48
2023/03/31 04:25:15;;;;;;;0.30;0.30;;;;;;;19.02;47.39;99581.28;5117318;28;20071;-48
2023/03/31 04:27:45;;;;;;;0.30;0.30;;;;;;;19.04;47.52;99575.44;5098570;28;20107;-48
2023/03/31 04:30:21;;;;;;;0.28;0.28;;;;;;;19.01;47.44;99554.84;5099550;28;20054;-49
2023/03/31 04:32:55;;;;;;;0.30;0.30;;;;;;;19.04;47.30;99534.91;5101764;28;20475;-48
2023/03/31 04:35:23;;;;;;;0.30;0.30;;;;;;;19.04;47.36;99528.53;5102472;28;20051;-49
2023/03/31 04:37:51;;;;;;;0.20;0.20;;;;;;;19.04;47.55;99529.38;5116511;27;20047;-48
2023/03/31 04:40:17;;;;;;;0.30;0.30;;;;;;;19.05;47.36;99519.16;5112268;28;20055;-48
2023/03/31 04:42:43;;;;;;;0.30;0.30;;;;;;;19.05;47.31;99506.19;5078339;28;20086;-48
2023/03/31 04:45:10;;;;;;;0.20;0.20;;;;;;;19.06;47.52;99504.22;5077943;28;20047;-50
2023/03/31 04:47:36;;;;;;;0.20;0.20;;;;;;;19.07;47.05;99497.56;5110416;28;20567;-48
2023/03/31 04:50:02;;;;;;;0.20;0.20;;;;;;;19.07;47.13;99491.25;5095523;28;20047;-49
2023/03/31 04:52:28;;;;;;;0.30;0.30;;;;;;;19.07;47.34;99482.97;5112243;28;20792;-50
2023/03/31 04:54:53;;;;;;;0.30;0.30;;;;;;;19.13;48.25;99474.25;5105757;28;20059;-48
2023/03/31 04:57:20;;;;;;;0.20;0.20;;;;;;;19.12;47.39;99469.84;5112331;28;20043;-49
2023/03/31 04:59:45;;;;;;;0.30;0.30;;;;;;;19.10;47.59;99457.50;5110908;28;20047;-48
2023/03/31 05:02:11;;;;;;;0.20;0.20;;;;;;;19.11;47.30;99451.66;5113045;28;20087;-48
2023/03/31 05:04:37;;;;;;;0.20;0.20;;;;;;;19.11;47.23;99448.09;5115848;28;20045;-48
2023/03/31 05:07:03;;;;;;;0.20;0.20;;;;;;;19.11;47.49;99453.63;5106824;28;20457;-50
2023/03/31 05:09:29;;;;;;;0.20;0.20;;;;;;;19.12;48.45;99441.44;5116483;28;20042;-49
2023/03/31 05:11:56;;;;;;;0.20;0.20;;;;;;;19.13;47.77;99438.38;5108188;28;20078;-50
2023/03/31 05:14:21;;;;;;;0.20;0.20;;;;;;;19.13;47.74;99435.63;5084266;28;20039;-48
2023/03/31 05:16:47;;;;;;;0.30;0.30;;;;;;;19.12;47.93;99433.97;5100140;28;20717;-49
2023/03/31 05:19:13;;;;;;;0.30;0.30;;;;;;;19.12;47.79;99425.69;5106588;27;20842;-55
2023/03/31 05:21:38;;;;;;;0.30;0.30;;;;;;;19.14;47.95;99423.44;5107804;27;20402;-50
2023/03/31 05:24:04;;;;;;;0.30;0.30;;;;;;;19.15;47.65;99404.94;5103752;28;20041;-48
2023/03/31 05:26:30;;;;;;;0.20;0.20;;;;;;;19.17;47.74;99410.94;5106460;28;20535;-48
2023/03/31 05:28:56;;;;;;;0.20;0.20;;;;;;;19.14;47.36;99406.88;5107756;28;20132;-47
2023/03/31 05:31:22;;;;;;;0.20;0.20;;;;;;;19.14;47.60;99409.66;5116991;27;20392;-49
2023/03/31 05:33:47;;;;;;;0.20;0.20;;;;;;;19.15;47.69;99400.22;5103960;27;20469;-48
2023/03/31 05:36:15;;;;;;;0.20;0.20;;;;;;;19.14;47.56;99408.84;5112635;27;20046;-49
2023/03/31 05:38:41;;;;;;;0.20;0.20;;;;;;;19.14;47.67;99397.81;5102127;28;20390;-50
2023/03/31 05:41:08;;;;;;;0.22;0.22;;;;;;;19.14;47.78;99395.03;5082536;28;20097;-48
2023/03/31 05:43:34;;;;;;;0.22;0.22;;;;;;;19.14;47.68;99387.56;5090011;28;20092;-49
2023/03/31 05:46:01;;;;;;;0.30;0.30;;;;;;;19.15;47.41;99385.63;5113403;28;20039;-48
2023/03/31 05:48:26;;;;;;;0.28;0.28;;;;;;;19.16;47.76;99390.00;5105181;28;20056;-48
2023/03/31 05:51:00;;;;;;;0.30;0.30;;;;;;;19.16;47.43;99381.72;5106940;28;20535;-48
2023/03/31 05:53:26;;;;;;;0.30;0.30;;;;;;;19.15;47.34;99372.63;5096785;28;20043;-49
2023/03/31 05:56:00;;;;;;;0.20;0.20;;;;;;;19.14;47.42;99365.50;5102571;28;20054;-48
2023/03/31 05:58:27;;;;;;;0.20;0.20;;;;;;;19.16;47.57;99367.94;5065513;28;20047;-48
2023/03/31 06:01:10;;;;;;;0.30;0.30;;;;;;;19.16;47.41;99363.22;5056769;28;20039;-48
2023/03/31 06:03:39;;;;;;;0.28;0.28;;;;;;;19.15;47.63;99366.31;5087243;28;20609;-50
2023/03/31 06:06:07;;;;;;;0.30;0.30;;;;;;;19.16;47.69;99352.19;5084104;28;20253;-49
2023/03/31 06:08:34;;;;;;;0.30;0.30;;;;;;;19.17;47.55;99359.34;5106918;27;20047;-55
2023/03/31 06:11:02;;;;;;;0.30;0.30;;;;;;;19.17;47.32;99350.22;5105030;28;20071;-48
2023/03/31 06:13:28;;;;;;;0.20;0.20;;;;;;;19.17;47.63;99347.47;5086759;28;20479;-48
2023/03/31 06:15:55;;;;;;;0.30;0.30;;;;;;;19.17;47.44;99344.72;5104187;27;20053;-49
2023/03/31 06:18:21;;;;;;;0.20;0.20;;;;;;;19.17;47.34;99336.44;5107086;28;20427;-51
2023/03/31 06:20:47;;;;;;;0.30;0.30;;;;;;;19.16;47.24;99341.13;5106747;28;20552;-48
2023/03/31 06:23:12;;;;;;;0.30;0.30;;;;;;;19.17;47.26;99341.94;5106866;28;20043;-50
2023/03/31 06:25:38;;;;;;;0.30;0.30;;;;;;;19.16;47.41;99346.66;5099779;28;20039;-47
2023/03/31 06:28:16;;;;;;;0.20;0.20;;;;;;;19.17;47.49;99330.91;5112296;28;20051;-48
2023/03/31 06:30:42;;;;;;;0.20;0.20;;;;;;;19.17;47.43;99341.94;5111632;28;20082;-49
2023/03/31 06:33:08;;;;;;;0.30;0.30;;;;;;;19.18;47.45;99338.09;5113473;27;20063;-50
2023/03/31 06:35:37;;;;;;;0.20;0.20;;;;;;;19.16;47.42;99335.63;5101941;28;20086;-48
2023/03/31 06:38:02;;;;;;;0.30;0.30;;;;;;;19.17;47.50;99336.44;5089399;28;20085;-49
2023/03/31 06:40:28;;;;;;;0.20;0.20;;;;;;;19.19;47.56;99331.44;5111984;28;20039;-49
2023/03/31 06:42:54;;;;;;;0.22;0.22;;;;;;;19.17;47.37;99329.00;5108669;28;20304;-48
2023/03/31 06:45:20;;;;;;;0.20;0.20;;;;;;;19.17;47.14;99329.00;5106010;28;20043;-50
2023/03/31 06:47:45;;;;;;;0.20;0.20;;;;;;;19.17;47.18;99331.75;5089233;28;20321;-47
2023/03/31 06:50:11;;;;;;;0.20;0.20;;;;;;;19.16;47.41;99327.34;5065001;28;20107;-48
2023/03/31 06:52:37;;;;;;;0.28;0.28;;;;;;;19.17;47.38;99325.41;5068667;28;20058;-49
2023/03/31 06:55:03;;;;;;;0.30;0.30;;;;;;;19.17;47.22;99329.00;5073202;28;21031;-48
2023/03/31 06:57:32;;;;;;;0.30;0.30;;;;;;;19.16;47.14;99319.06;5096221;28;20074;-47
2023/03/31 06:59:57;;;;;;;0.20;0.20;;;;;;;19.17;47.33;99314.34;5091073;28;20043;-48
2023/03/31 07:02:23;;;;;;;0.30;0.30;;;;;;;19.16;47.24;99310.78;5087409;27;20154;-48
2023/03/31 07:04:49;;;;;;;0.20;0.20;;;;;;;19.16;47.28;99310.78;5091125;28;20059;-48
2023/03/31 07:07:15;;;;;;;0.30;0.30;;;;;;;19.16;47.45;99308.03;5083505;28;20058;-49
2023/03/31 07:09:41;;;;;;;0.28;0.28;;;;;;;19.15;47.43;99300.88;5087244;28;20448;-48
2023/03/31 07:12:06;;;;;;;0.30;0.30;;;;;;;19.16;47.32;99298.94;5066231;27;20184;-48
2023/03/31 07:14:32;;;;;;;0.20;0.20;;;;;;;19.16;47.06;99297.00;5097863;27;20415;-48
2023/03/31 07:16:58;;;;;;;0.20;0.20;;;;;;;19.16;47.34;99287.91;5092713;28;20043;-48
2023/03/31 07:19:24;;;;;;;0.20;0.20;;;;;;;19.16;47.15;99296.19;5064824;28;20059;-50
2023/03/31 07:21:50;;;;;;;0.20;0.20;;;;;;;19.16;47.38;99293.41;5098910;28;20457;-48
2023/03/31 07:24:16;;;;;;;0.22;0.22;;;;;;;19.16;47.14;99293.41;5105231;28;20111;-49
2023/03/31 07:26:42;;;;;;;0.20;0.20;;;;;;;19.16;47.19;99294.22;5099236;28;20519;-48
2023/03/31 07:29:07;;;;;;;0.20;0.20;;;;;;;19.16;47.33;99285.94;5099898;27;20076;-53
2023/03/31 07:31:33;;;;;;;0.20;0.20;;;;;;;19.16;47.07;99287.91;5102864;28;20044;-49
2023/03/31 07:34:00;;;;;;;0.20;0.20;;;;;;;19.16;47.27;99276.88;5081681;28;20119;-48
2023/03/31 07:36:26;;;;;;;0.30;0.30;;;;;;;19.16;47.07;99271.34;5071288;28;20059;-48
2023/03/31 07:38:52;;;;;;;0.20;0.20;;;;;;;19.15;47.21;99273.28;5096090;28;20035;-50
2023/03/31 07:41:19;;;;;;;0.20;0.20;;;;;;;19.16;47.24;99285.94;5101597;28;20192;-47
2023/03/31 07:43:45;;;;;;;0.20;0.20;;;;;;;19.15;47.46;99281.56;5068842;27;20054;-49
2023/03/31 07:46:14;;;;;;;0.30;0.30;;;;;;;19.15;47.19;99278.81;5100296;28;20502;-50
2023/03/31 07:48:40;;;;;;;0.20;0.20;;;;;;;19.14;46.90;99268.91;5086042;28;20047;-49
2023/03/31 07:51:06;;;;;;;0.20;0.20;;;;;;;19.16;47.32;99274.09;5084116;28;20051;-49
2023/03/31 07:53:32;;;;;;;0.20;0.20;;;;;;;19.16;47.36;99271.34;5101517;28;20049;-52
2023/03/31 07:55:57;;;;;;;0.20;0.20;;;;;;;19.15;47.21;99278.00;5102586;28;20419;-48
2023/03/31 07:58:23;;;;;;;0.20;0.20;;;;;;;19.14;47.33;99266.16;5101059;28;20053;-49
2023/03/31 08:00:48;;;;;;;0.30;0.30;;;;;;;19.14;47.39;99271.69;5100354;28;20043;-48
2023/03/31 08:03:14;;;;;;;0.20;0.20;;;;;;;19.14;46.95;99274.44;5094895;28;20202;-47
2023/03/31 08:05:40;;;;;;;0.30;0.30;;;;;;;19.15;47.13;99272.47;5097684;28;20051;-51
2023/03/31 08:08:06;;;;;;;0.20;0.20;;;;;;;19.15;47.04;99265.00;5099718;27;20047;-48
2023/03/31 08:10:31;;;;;;;0.20;0.20;;;;;;;19.20;47.52;99272.34;5091621;28;20115;-50
2023/03/31 08:12:57;;;;;;;0.20;0.20;;;;;;;19.20;47.47;99264.84;5096144;28;20415;-48
2023/03/31 08:15:23;;;;;;;0.30;0.30;;;;;;;19.18;47.35;99264.38;5100085;28;20400;-49
2023/03/31 08:17:49;;;;;;;0.20;0.20;;;;;;;19.17;47.48;99260.00;5091808;28;20198;-49
2023/03/31 08:20:15;;;;;;;0.20;0.20;;;;;;;19.17;47.69;99259.16;5067982;28;20045;-47
2023/03/31 08:22:40;;;;;;;0.20;0.20;;;;;;;19.18;47.24;99263.56;5100501;28;20650;-49
2023/03/31 08:25:07;;;;;;;0.20;0.20;;;;;;;19.17;47.50;99256.41;5100773;27;20040;-53
2023/03/31 08:27:34;;;;;;;0.25;0.25;;;;;;;19.17;47.48;99254.50;5077869;28;20285;-48
2023/03/31 08:30:03;;;;;;;0.20;0.20;;;;;;;19.18;47.57;99255.28;5076445;28;21247;-48
2023/03/31 08:32:29;;;;;;;;;;;;;;;19.17;47.58;99246.22;5099384;27;20039;-48
2023/03/31 08:34:55;;;;;;;0.20;0.20;;;;;;;19.22;47.90;99250.75;5093964;28;19934;-46
2023/03/31 08:37:21;;;;;;;0.20;0.20;;;;;;;19.23;47.49;99257.91;5089774;28;20369;-49
2023/03/31 08:39:46;;;;;;;0.20;0.20;;;;;;;19.22;47.63;99254.31;5090976;27;20531;-48
2023/03/31 08:42:15;;;;;;;0.20;0.20;;;;;;;19.22;47.64;99248.81;5096481;28;20283;-48
2023/03/31 08:44:47;;;;;;;0.20;0.20;;;;;;;19.21;47.59;99244.44;5097278;28;20156;-54
2023/03/31 08:47:17;;;;;;;0.20;0.20;;;;;;;19.22;47.41;99239.72;5095083;28;20231;-52
2023/03/31 08:49:48;;;;;;;0.20;0.20;;;;;;;19.22;47.45;99236.97;5101123;28;20040;-48
2023/03/31 08:52:18;;;;;;;0.20;0.20;;;;;;;19.21;47.30;99230.63;5104338;28;20518;-50
2023/03/31 08:54:50;;;;;;;0.30;0.30;;;;;;;19.21;47.40;99238.06;5104280;28;20075;-49
2023/03/31 08:57:21;;;;;;;0.30;0.30;;;;;;;19.21;47.42;99224.28;5077646;27;20106;-50
2023/03/31 08:59:48;;;;;;;0.20;0.20;;;;;;;19.21;47.50;99219.59;5095718;27;20055;-47
2023/03/31 09:02:39;;;;;;;0.20;0.20;;;;;;;19.22;47.53;99218.44;5102609;28;20047;-48
2023/03/31 09:05:16;;;;;;;0.20;0.20;;;;;;;19.22;47.58;99223.97;5102493;28;20051;-49
2023/03/31 09:08:01;;;;;;;0.20;0.20;;;;;;;19.24;47.56;99224.44;5100815;27;20043;-48
2023/03/31 09:13:30;;;;;;;0.22;0.22;;;;;;;19.24;48.56;99232.72;5139448;27;20120;-45
2023/03/31 09:16:02;;;;;;;0.20;0.20;;;;;;;19.27;47.59;99223.00;5133468;27;20070;-46
2023/03/31 09:18:32;;;;;;;0.20;0.20;;;;;;;19.28;47.74;99219.09;5134593;27;20042;-47
2023/03/31 09:21:06;;;;;;;0.30;0.30;;;;;;;19.26;47.69;99215.88;5119661;27;20181;-51
2023/03/31 09:23:35;;;;;;;0.20;0.20;;;;;;;19.25;47.60;99217.78;5120992;27;20042;-46
2023/03/31 09:26:03;;;;;;;0.30;0.30;;;;;;;19.26;47.75;99211.16;5136331;27;20119;-47
2023/03/31 09:28:34;;;;;;;0.20;0.20;;;;;;;19.27;47.42;99209.19;5107646;27;20449;-48
2023/03/31 09:31:04;;;;;;;0.20;0.20;;;;;;;19.27;47.58;99211.97;5137986;27;20047;-45
2023/03/31 09:33:31;;;;;;;0.30;0.30;;;;;;;19.26;47.42;99202.06;5139280;27;20117;-47
2023/03/31 09:35:58;;;;;;;0.30;0.30;;;;;;;19.27;47.37;99198.16;5127732;27;20047;-46
2023/03/31 09:38:28;;;;;;;0.20;0.20;;;;;;;19.28;47.33;99189.56;5116497;27;20417;-45
2023/03/31 09:40:58;;;;;;;0.20;0.20;;;;;;;19.28;47.49;99185.97;5118349;27;20078;-46
2023/03/31 09:43:26;;;;;;;0.20;0.20;;;;;;;19.28;47.58;99177.69;5110328;27;20677;-45
2023/03/31 09:45:52;;;;;;;0.20;0.20;;;;;;;19.28;47.61;99191.50;5127951;27;20074;-45
2023/03/31 09:48:39;;;;;;;0.30;0.30;;;;;;;19.29;47.25;99206.91;5101282;27;20054;-46
2023/03/31 09:51:07;;;;;;;0.20;0.20;;;;;;;19.29;47.32;99195.88;5136716;27;20648;-47
2023/03/31 09:53:38;;;;;;;0.20;0.20;;;;;;;19.29;47.46;99202.22;5127652;27;20922;-47
2023/03/31 09:56:07;;;;;;;0.25;0.25;;;;;;;19.32;49.09;99189.72;5136895;27;20047;-45
2023/03/31 09:58:41;;;;;;;0.20;0.20;;;;;;;19.33;48.25;99194.09;5119233;27;20394;-45
2023/03/31 10:01:10;;;;;;;0.20;0.20;;;;;;;19.33;47.80;99187.78;5109467;27;21750;-46
2023/03/31 10:03:48;;;;;;;0.30;0.30;;;;;;;19.33;48.77;99190.53;5135272;27;20111;-45
2023/03/31 10:06:15;;;;;;;0.20;0.20;;;;;;;19.33;48.33;99177.53;5124067;27;20115;-45
2023/03/31 10:08:42;;;;;;;0.20;0.20;;;;;;;19.33;48.43;99182.25;5137412;27;20170;-47
2023/03/31 10:11:10;;;;;;;0.20;0.20;;;;;;;19.32;48.40;99170.41;5139967;27;22170;-45
2023/03/31 10:13:47;;;;;;;0.20;0.20;;;;;;;19.32;48.40;99167.63;5142772;27;20047;-46
2023/03/31 10:16:21;;;;;;;0.20;0.20;;;;;;;19.32;48.00;99166.84;5119527;27;20067;-45
2023/03/31 10:18:48;;;;;;;0.30;0.30;;;;;;;19.32;47.97;99166.84;5114703;27;20046;-46
2023/03/31 10:21:20;;;;;;;0.20;0.20;;;;;;;19.31;48.03;99149.47;5134980;27;20089;-45
2023/03/31 10:23:46;;;;;;;0.20;0.20;;;;;;;19.32;48.04;99148.31;5137463;27;20047;-48
2023/03/31 10:26:17;;;;;;;0.20;0.20;;;;;;;19.32;48.04;99145.56;5109701;27;20039;-48
2023/03/31 10:28:43;;;;;;;0.20;0.20;;;;;;;19.33;48.00;99135.31;5089223;27;20118;-45
2023/03/31 10:31:10;;;;;;;0.20;0.20;;;;;;;19.34;48.23;99129.47;5121430;27;20058;-45
2023/03/31 10:33:43;;;;;;;0.20;0.20;;;;;;;19.33;47.91;99133.38;5124370;27;20530;-46
2023/03/31 10:36:20;;;;;;;0.25;0.25;;;;;;;19.35;48.27;99130.31;5096007;27;20137;-43
2023/03/31 10:38:47;;;;;;;0.30;0.30;;;;;;;19.47;48.33;99133.19;5086713;27;20043;-43
2023/03/31 10:41:18;;;;;;;0.30;0.30;;;;;;;19.48;48.21;99127.38;5092908;27;20095;-46
2023/03/31 10:43:50;;;;;;;0.20;0.20;;;;;;;19.46;48.23;99126.88;5094233;27;20159;-45
2023/03/31 10:46:15;;;;;;;0.20;0.20;;;;;;;19.46;48.48;99176.56;5103337;27;20050;-46
2023/03/31 10:48:43;;;;;;;0.20;0.20;;;;;;;19.48;49.00;99201.09;5122064;27;20039;-46
2023/03/31 10:51:14;;;;;;;0.20;0.20;;;;;;;19.47;49.03;99185.66;5083839;27;20039;-45
2023/03/31 10:53:42;;;;;;;0.20;0.20;;;;;;;19.44;49.42;99189.09;5095972;27;20567;-47
2023/03/31 10:56:34;;;;;;;0.22;0.22;;;;;;;19.46;49.37;99184.03;5086343;27;20137;-45
2023/03/31 10:59:29;;;;;;;0.20;0.20;;;;;;;19.45;49.06;99186.00;5101011;27;20047;-46
2023/03/31 11:02:12;;;;;;;0.20;0.20;;;;;;;19.43;49.33;99176.41;5103202;27;20201;-45
2023/03/31 11:04:54;;;;;;;0.20;0.20;;;;;;;19.42;49.29;99185.81;5121154;27;20587;-47
2023/03/31 11:07:31;;;;;;;0.20;0.20;;;;;;;19.42;49.24;99169.25;5123864;27;20070;-45
2023/03/31 11:10:23;;;;;;;0.20;0.20;;;;;;;19.41;49.26;99171.22;5125647;27;20047;-46
2023/03/31 11:13:01;;;;;;;0.30;0.30;;;;;;;19.41;48.89;99173.16;5128562;27;20038;-45
2023/03/31 11:15:54;;;;;;;0.20;0.20;;;;;;;19.41;49.29;99160.16;5125735;27;20504;-46
2023/03/31 11:18:49;;;;;;;0.30;0.30;;;;;;;19.41;49.15;99162.13;5108724;27;20039;-44
2023/03/31 11:21:23;;;;;;;0.20;0.20;;;;;;;19.41;49.02;99156.59;5116286;27;20053;-47
2023/03/31 11:24:00;;;;;;;0.20;0.20;;;;;;;19.41;49.13;99154.66;5126286;27;20074;-45
2023/03/31 11:26:53;;;;;;;0.20;0.20;;;;;;;19.41;49.13;99145.56;5105320;27;20046;-46
2023/03/31 11:29:35;;;;;;;0.30;0.30;;;;;;;19.41;49.14;99135.31;5105534;27;20049;-45
2023/03/31 11:32:25;;;;;;;0.20;0.20;;;;;;;19.41;48.82;99134.50;5123236;27;20054;-46
2023/03/31 11:35:17;;;;;;;0.20;0.20;;;;;;;19.41;48.88;99124.28;5116629;27;20165;-45
2023/03/31 11:38:11;;;;;;;0.20;0.20;;;;;;;19.42;48.76;99122.31;5104165;27;20158;-45
2023/03/31 11:40:57;;;;;;;0.20;0.20;;;;;;;19.45;48.47;99125.25;5104574;27;20593;-45
2023/03/31 11:43:35;;;;;;;0.20;0.20;;;;;;;19.46;48.72;99115.81;5124189;27;20459;-46
2023/03/31 11:46:07;;;;;;;0.20;0.20;;;;;;;19.46;48.54;99110.31;5119796;27;20070;-45
2023/03/31 11:48:58;;;;;;;0.20;0.20;;;;;;;19.46;48.71;99115.81;5099065;27;20099;-45
2023/03/31 11:51:30;;;;;;;0.20;0.20;;;;;;;19.47;48.79;99116.63;5101152;28;20050;-46
2023/03/31 11:53:58;;;;;;;0.20;0.20;;;;;;;19.47;48.93;99113.88;5129699;27;20042;-46
2023/03/31 11:56:32;;;;;;;0.20;0.20;;;;;;;19.46;48.71;99107.53;5118776;27;20428;-48
2023/03/31 11:58:59;;;;;;;0.30;0.30;;;;;;;19.48;48.91;99115.53;5109169;27;20043;-46
2023/03/31 12:01:33;;;;;;;0.30;0.30;;;;;;;19.47;48.71;99111.94;5130974;27;20051;-45